sensor_id;sensor_type;location;lat;lon;timestamp;P1;durP1;ratioP1;P2;durP2;ratioP2
77821;SDS011;67012;53.712;10.728;2023-04-04T10:38:20;1.40;;;0.82;;
77821;SDS011;67012;53.712;10.728;2023-04-04T10:40:48;1.40;;;0.68;;
77821;SDS011;67012;53.712;10.728;2023-04-04T10:43:14;3.25;;;0.73;;
77821;SDS011;67012;53.712;10.728;2023-04-04T10:45:43;3.20;;;0.90;;
77821;SDS011;67012;53.712;10.728;2023-04-04T10:48:08;1.40;;;0.90;;
77821;SDS011;67012;53.712;10.728;2023-04-04T10:50:34;1.90;;;0.87;;
77821;SDS011;67012;53.712;10.728;2023-04-04T10:53:00;3.13;;;1.05;;
77821;SDS011;67012;53.712;10.728;2023-04-04T10:55:27;0.90;;;0.73;;
77821;SDS011;67012;53.712;10.728;2023-04-04T10:57:53;0.90;;;0.80;;
77821;SDS011;67012;53.712;10.728;2023-04-04T11:00:19;1.70;;;0.85;;
77821;SDS011;67012;53.712;10.728;2023-04-04T11:05:25;3.08;;;0.63;;
77821;SDS011;67012;53.712;10.728;2023-04-04T11:08:01;1.58;;;0.80;;
77821;SDS011;67012;53.712;10.728;2023-04-04T11:10:27;1.48;;;0.75;;
77821;SDS011;67012;53.712;10.728;2023-04-04T11:12:53;0.77;;;0.55;;
77821;SDS011;67012;53.712;10.728;2023-04-04T11:15:22;1.67;;;0.73;;
77821;SDS011;67012;53.712;10.728;2023-04-04T11:20:14;0.60;;;0.60;;
77821;SDS011;67012;53.712;10.728;2023-04-04T11:22:39;2.72;;;0.90;;
77821;SDS011;67012;53.712;10.728;2023-04-04T11:27:54;1.52;;;1.00;;
77821;SDS011;67012;53.712;10.728;2023-04-04T11:30:20;2.17;;;1.10;;
77821;SDS011;67012;53.712;10.728;2023-04-04T11:32:49;2.22;;;1.13;;
77821;SDS011;67012;53.712;10.728;2023-04-04T11:35:14;1.65;;;1.13;;
77821;SDS011;67012;53.712;10.728;2023-04-04T11:37:43;1.08;;;0.85;;
77821;SDS011;67012;53.712;10.728;2023-04-04T11:40:51;0.77;;;0.77;;
77821;SDS011;67012;53.712;10.728;2023-04-04T11:43:08;1.23;;;1.00;;
77821;SDS011;67012;53.712;10.728;2023-04-04T11:45:33;2.95;;;1.10;;
77821;SDS011;67012;53.712;10.728;2023-04-04T11:47:59;2.75;;;0.90;;
77821;SDS011;67012;53.712;10.728;2023-04-04T11:50:25;3.27;;;1.27;;
77821;SDS011;67012;53.712;10.728;2023-04-04T11:52:50;2.77;;;1.27;;
77821;SDS011;67012;53.712;10.728;2023-04-04T11:55:18;3.35;;;1.17;;
77821;SDS011;67012;53.712;10.728;2023-04-04T11:57:46;1.85;;;1.02;;
77821;SDS011;67012;53.712;10.728;2023-04-04T12:00:31;1.63;;;0.70;;
77821;SDS011;67012;53.712;10.728;2023-04-04T12:02:57;1.30;;;1.00;;
77821;SDS011;67012;53.712;10.728;2023-04-04T12:05:22;0.75;;;0.70;;
77821;SDS011;67012;53.712;10.728;2023-04-04T12:07:48;3.72;;;1.20;;
77821;SDS011;67012;53.712;10.728;2023-04-04T12:10:13;3.47;;;1.75;;
77821;SDS011;67012;53.712;10.728;2023-04-04T12:12:39;1.40;;;0.80;;
77821;SDS011;67012;53.712;10.728;2023-04-04T12:15:06;2.53;;;1.00;;
77821;SDS011;67012;53.712;10.728;2023-04-04T12:17:32;2.95;;;1.08;;
77821;SDS011;67012;53.712;10.728;2023-04-04T12:19:58;3.92;;;1.13;;
77821;SDS011;67012;53.712;10.728;2023-04-04T12:22:23;2.77;;;1.00;;
77821;SDS011;67012;53.712;10.728;2023-04-04T12:24:48;3.67;;;1.33;;
77821;SDS011;67012;53.712;10.728;2023-04-04T12:27:14;3.13;;;1.10;;
77821;SDS011;67012;53.712;10.728;2023-04-04T12:29:39;1.77;;;1.10;;
77821;SDS011;67012;53.712;10.728;2023-04-04T12:32:06;2.38;;;0.98;;
77821;SDS011;67012;53.712;10.728;2023-04-04T12:34:33;1.70;;;1.00;;
77821;SDS011;67012;53.712;10.728;2023-04-04T12:36:59;3.92;;;1.30;;
77821;SDS011;67012;53.712;10.728;2023-04-04T12:39:25;1.75;;;1.00;;
77821;SDS011;67012;53.712;10.728;2023-04-04T12:44:26;2.67;;;1.33;;
77821;SDS011;67012;53.712;10.728;2023-04-04T12:46:54;2.80;;;1.60;;
77821;SDS011;67012;53.712;10.728;2023-04-04T12:51:48;4.43;;;1.00;;
77821;SDS011;67012;53.712;10.728;2023-04-04T12:54:24;1.58;;;1.00;;
77821;SDS011;67012;53.712;10.728;2023-04-04T12:56:53;1.85;;;0.90;;
77821;SDS011;67012;53.712;10.728;2023-04-04T12:59:20;1.75;;;0.93;;
77821;SDS011;67012;53.712;10.728;2023-04-04T13:01:46;4.60;;;1.25;;
77821;SDS011;67012;53.712;10.728;2023-04-04T13:04:11;1.13;;;1.00;;
77821;SDS011;67012;53.712;10.728;2023-04-04T13:06:43;2.40;;;1.00;;
77821;SDS011;67012;53.712;10.728;2023-04-04T13:09:14;4.10;;;1.13;;
77821;SDS011;67012;53.712;10.728;2023-04-04T13:14:20;1.15;;;1.05;;
77821;SDS011;67012;53.712;10.728;2023-04-04T13:16:45;1.87;;;1.10;;
77821;SDS011;67012;53.712;10.728;2023-04-04T13:19:24;1.42;;;1.00;;
77821;SDS011;67012;53.712;10.728;2023-04-04T13:21:50;3.20;;;1.10;;
77821;SDS011;67012;53.712;10.728;2023-04-04T13:24:15;3.45;;;1.33;;
77821;SDS011;67012;53.712;10.728;2023-04-04T13:26:40;6.70;;;1.27;;
77821;SDS011;67012;53.712;10.728;2023-04-04T13:29:06;3.63;;;1.43;;
77821;SDS011;67012;53.712;10.728;2023-04-04T13:31:31;3.50;;;1.40;;
77821;SDS011;67012;53.712;10.728;2023-04-04T13:33:56;5.07;;;1.30;;
77821;SDS011;67012;53.712;10.728;2023-04-04T13:36:21;2.00;;;1.23;;
77821;SDS011;67012;53.712;10.728;2023-04-04T13:38:46;2.07;;;1.20;;
77821;SDS011;67012;53.712;10.728;2023-04-04T13:41:12;2.57;;;1.07;;
77821;SDS011;67012;53.712;10.728;2023-04-04T13:43:37;2.93;;;1.10;;
77821;SDS011;67012;53.712;10.728;2023-04-04T13:46:02;2.00;;;1.20;;
77821;SDS011;67012;53.712;10.728;2023-04-04T13:48:27;2.33;;;1.10;;
77821;SDS011;67012;53.712;10.728;2023-04-04T13:50:52;3.13;;;1.20;;
77821;SDS011;67012;53.712;10.728;2023-04-04T13:53:19;1.67;;;1.15;;
77821;SDS011;67012;53.712;10.728;2023-04-04T13:55:44;1.60;;;1.10;;
77821;SDS011;67012;53.712;10.728;2023-04-04T13:58:10;2.35;;;0.88;;
77821;SDS011;67012;53.712;10.728;2023-04-04T14:00:35;2.30;;;1.10;;
77821;SDS011;67012;53.712;10.728;2023-04-04T14:03:01;1.48;;;1.05;;
77821;SDS011;67012;53.712;10.728;2023-04-04T14:05:26;2.10;;;1.05;;
77821;SDS011;67012;53.712;10.728;2023-04-04T14:07:51;2.77;;;1.30;;
77821;SDS011;67012;53.712;10.728;2023-04-04T14:10:17;1.40;;;0.90;;
77821;SDS011;67012;53.712;10.728;2023-04-04T14:12:42;4.47;;;1.20;;
77821;SDS011;67012;53.712;10.728;2023-04-04T14:15:07;1.60;;;0.80;;
77821;SDS011;67012;53.712;10.728;2023-04-04T14:17:33;1.35;;;1.10;;
77821;SDS011;67012;53.712;10.728;2023-04-04T14:19:58;2.13;;;1.20;;
77821;SDS011;67012;53.712;10.728;2023-04-04T14:22:23;2.28;;;0.90;;
77821;SDS011;67012;53.712;10.728;2023-04-04T14:24:49;3.08;;;1.17;;
77821;SDS011;67012;53.712;10.728;2023-04-04T14:27:14;2.22;;;1.10;;
77821;SDS011;67012;53.712;10.728;2023-04-04T14:29:40;1.15;;;1.05;;
77821;SDS011;67012;53.712;10.728;2023-04-04T14:32:05;1.77;;;0.90;;
77821;SDS011;67012;53.712;10.728;2023-04-04T14:34:30;2.60;;;0.80;;
77821;SDS011;67012;53.712;10.728;2023-04-04T14:36:55;1.43;;;0.90;;
77821;SDS011;67012;53.712;10.728;2023-04-04T14:39:20;2.77;;;1.07;;
77821;SDS011;67012;53.712;10.728;2023-04-04T14:41:46;2.40;;;0.90;;
77821;SDS011;67012;53.712;10.728;2023-04-04T14:44:11;1.90;;;0.90;;
77821;SDS011;67012;53.712;10.728;2023-04-04T14:46:36;1.97;;;1.03;;
77821;SDS011;67012;53.712;10.728;2023-04-04T14:49:02;2.40;;;0.93;;
77821;SDS011;67012;53.712;10.728;2023-04-04T14:51:29;1.52;;;0.88;;
77821;SDS011;67012;53.712;10.728;2023-04-04T14:53:56;1.83;;;0.98;;
77821;SDS011;67012;53.712;10.728;2023-04-04T14:56:21;2.67;;;1.00;;
77821;SDS011;67012;53.712;10.728;2023-04-04T14:58:46;1.67;;;0.70;;
77821;SDS011;67012;53.712;10.728;2023-04-04T15:01:11;1.17;;;0.80;;
77821;SDS011;67012;53.712;10.728;2023-04-04T15:03:37;1.60;;;1.10;;
77821;SDS011;67012;53.712;10.728;2023-04-04T15:06:02;3.33;;;1.30;;
77821;SDS011;67012;53.712;10.728;2023-04-04T15:08:28;0.95;;;0.80;;
77821;SDS011;67012;53.712;10.728;2023-04-04T15:10:53;2.10;;;0.80;;
77821;SDS011;67012;53.712;10.728;2023-04-04T15:13:18;2.05;;;1.10;;
77821;SDS011;67012;53.712;10.728;2023-04-04T15:15:44;1.67;;;1.00;;
77821;SDS011;67012;53.712;10.728;2023-04-04T15:18:09;2.58;;;1.25;;
77821;SDS011;67012;53.712;10.728;2023-04-04T15:20:35;2.00;;;1.10;;
77821;SDS011;67012;53.712;10.728;2023-04-04T15:23:03;1.52;;;1.13;;
77821;SDS011;67012;53.712;10.728;2023-04-04T15:25:28;2.50;;;0.90;;
77821;SDS011;67012;53.712;10.728;2023-04-04T15:27:54;2.05;;;1.52;;
77821;SDS011;67012;53.712;10.728;2023-04-04T15:30:19;1.45;;;0.98;;
77821;SDS011;67012;53.712;10.728;2023-04-04T15:32:44;2.23;;;0.70;;
77821;SDS011;67012;53.712;10.728;2023-04-04T15:35:14;2.50;;;0.80;;
77821;SDS011;67012;53.712;10.728;2023-04-04T15:37:39;1.85;;;0.80;;
77821;SDS011;67012;53.712;10.728;2023-04-04T15:40:05;2.78;;;0.90;;
77821;SDS011;67012;53.712;10.728;2023-04-04T15:42:30;4.93;;;1.35;;
77821;SDS011;67012;53.712;10.728;2023-04-04T15:44:55;2.17;;;0.70;;
77821;SDS011;67012;53.712;10.728;2023-04-04T15:47:21;2.90;;;1.10;;
77821;SDS011;67012;53.712;10.728;2023-04-04T15:49:46;2.73;;;1.07;;
77821;SDS011;67012;53.712;10.728;2023-04-04T15:52:11;1.17;;;0.97;;
77821;SDS011;67012;53.712;10.728;2023-04-04T15:54:36;1.47;;;1.07;;
77821;SDS011;67012;53.712;10.728;2023-04-04T15:57:01;2.10;;;0.90;;
77821;SDS011;67012;53.712;10.728;2023-04-04T15:59:27;1.37;;;0.90;;
77821;SDS011;67012;53.712;10.728;2023-04-04T16:01:55;1.00;;;0.88;;
77821;SDS011;67012;53.712;10.728;2023-04-04T16:04:20;2.35;;;0.90;;
77821;SDS011;67012;53.712;10.728;2023-04-04T16:06:46;2.63;;;1.10;;
77821;SDS011;67012;53.712;10.728;2023-04-04T16:09:11;1.45;;;0.80;;
77821;SDS011;67012;53.712;10.728;2023-04-04T16:11:36;0.70;;;0.70;;
77821;SDS011;67012;53.712;10.728;2023-04-04T16:14:01;1.20;;;0.80;;
77821;SDS011;67012;53.712;10.728;2023-04-04T16:16:27;1.63;;;0.90;;
77821;SDS011;67012;53.712;10.728;2023-04-04T16:18:52;1.80;;;1.10;;
77821;SDS011;67012;53.712;10.728;2023-04-04T16:21:17;1.10;;;0.67;;
77821;SDS011;67012;53.712;10.728;2023-04-04T16:23:42;1.40;;;1.00;;
77821;SDS011;67012;53.712;10.728;2023-04-04T16:26:08;3.03;;;0.75;;
77821;SDS011;67012;53.712;10.728;2023-04-04T16:28:33;1.45;;;1.00;;
77821;SDS011;67012;53.712;10.728;2023-04-04T16:30:58;3.40;;;0.88;;
77821;SDS011;67012;53.712;10.728;2023-04-04T16:33:24;3.17;;;0.75;;
77821;SDS011;67012;53.712;10.728;2023-04-04T16:35:49;3.83;;;0.83;;
77821;SDS011;67012;53.712;10.728;2023-04-04T16:38:14;2.70;;;0.80;;
77821;SDS011;67012;53.712;10.728;2023-04-04T16:40:41;2.58;;;1.10;;
77821;SDS011;67012;53.712;10.728;2023-04-04T16:43:07;0.85;;;0.65;;
77821;SDS011;67012;53.712;10.728;2023-04-04T16:45:33;1.37;;;0.70;;
77821;SDS011;67012;53.712;10.728;2023-04-04T16:47:58;1.93;;;0.70;;
77821;SDS011;67012;53.712;10.728;2023-04-04T16:50:23;1.63;;;0.80;;
77821;SDS011;67012;53.712;10.728;2023-04-04T16:52:49;1.88;;;0.60;;
77821;SDS011;67012;53.712;10.728;2023-04-04T16:55:15;0.82;;;0.60;;
77821;SDS011;67012;53.712;10.728;2023-04-04T16:57:40;1.27;;;0.80;;
77821;SDS011;67012;53.712;10.728;2023-04-04T17:00:06;1.30;;;0.50;;
77821;SDS011;67012;53.712;10.728;2023-04-04T17:02:34;2.10;;;0.98;;
77821;SDS011;67012;53.712;10.728;2023-04-04T17:04:59;1.98;;;0.80;;
77821;SDS011;67012;53.712;10.728;2023-04-04T17:07:24;0.70;;;0.70;;
77821;SDS011;67012;53.712;10.728;2023-04-04T17:09:50;1.52;;;0.88;;
77821;SDS011;67012;53.712;10.728;2023-04-04T17:12:15;2.75;;;1.65;;
77821;SDS011;67012;53.712;10.728;2023-04-04T17:14:41;18.25;;;8.68;;
77821;SDS011;67012;53.712;10.728;2023-04-04T17:17:06;15.87;;;7.63;;
77821;SDS011;67012;53.712;10.728;2023-04-04T17:19:32;4.78;;;2.38;;
77821;SDS011;67012;53.712;10.728;2023-04-04T17:21:59;3.92;;;1.73;;
77821;SDS011;67012;53.712;10.728;2023-04-04T17:24:24;1.35;;;1.25;;
77821;SDS011;67012;53.712;10.728;2023-04-04T17:26:51;1.83;;;0.80;;
77821;SDS011;67012;53.712;10.728;2023-04-04T17:29:16;1.43;;;0.90;;
77821;SDS011;67012;53.712;10.728;2023-04-04T17:31:42;1.33;;;0.68;;
77821;SDS011;67012;53.712;10.728;2023-04-04T17:34:08;2.25;;;0.80;;
77821;SDS011;67012;53.712;10.728;2023-04-04T17:36:35;2.70;;;0.60;;
77821;SDS011;67012;53.712;10.728;2023-04-04T17:39:00;1.02;;;0.63;;
77821;SDS011;67012;53.712;10.728;2023-04-04T17:41:25;0.80;;;0.40;;
77821;SDS011;67012;53.712;10.728;2023-04-04T17:43:51;1.40;;;0.40;;
77821;SDS011;67012;53.712;10.728;2023-04-04T17:46:16;0.53;;;0.53;;
77821;SDS011;67012;53.712;10.728;2023-04-04T17:48:41;6.10;;;1.25;;
77821;SDS011;67012;53.712;10.728;2023-04-04T17:51:07;1.37;;;0.80;;
77821;SDS011;67012;53.712;10.728;2023-04-04T17:53:32;0.60;;;0.60;;
77821;SDS011;67012;53.712;10.728;2023-04-04T17:55:58;1.65;;;0.60;;
77821;SDS011;67012;53.712;10.728;2023-04-04T17:58:23;1.90;;;0.50;;
77821;SDS011;67012;53.712;10.728;2023-04-04T18:00:50;0.75;;;0.55;;
77821;SDS011;67012;53.712;10.728;2023-04-04T18:03:16;0.95;;;0.68;;
77821;SDS011;67012;53.712;10.728;2023-04-04T18:05:43;0.82;;;0.60;;
77821;SDS011;67012;53.712;10.728;2023-04-04T18:08:08;0.67;;;0.50;;
77821;SDS011;67012;53.712;10.728;2023-04-04T18:10:34;1.63;;;0.80;;
77821;SDS011;67012;53.712;10.728;2023-04-04T18:12:59;0.93;;;0.50;;
77821;SDS011;67012;53.712;10.728;2023-04-04T18:15:25;0.77;;;0.77;;
77821;SDS011;67012;53.712;10.728;2023-04-04T18:17:51;1.03;;;0.50;;
77821;SDS011;67012;53.712;10.728;2023-04-04T18:20:16;1.67;;;0.50;;
77821;SDS011;67012;53.712;10.728;2023-04-04T18:22:42;1.40;;;0.43;;
77821;SDS011;67012;53.712;10.728;2023-04-04T18:25:09;0.77;;;0.60;;
77821;SDS011;67012;53.712;10.728;2023-04-04T18:27:34;2.00;;;0.50;;
77821;SDS011;67012;53.712;10.728;2023-04-04T18:29:59;1.25;;;0.60;;
77821;SDS011;67012;53.712;10.728;2023-04-04T18:32:25;0.77;;;0.70;;
77821;SDS011;67012;53.712;10.728;2023-04-04T18:34:52;2.25;;;0.65;;
77821;SDS011;67012;53.712;10.728;2023-04-04T18:37:17;1.17;;;0.70;;
77821;SDS011;67012;53.712;10.728;2023-04-04T18:39:42;1.37;;;0.73;;
77821;SDS011;67012;53.712;10.728;2023-04-04T18:42:07;0.80;;;0.60;;
77821;SDS011;67012;53.712;10.728;2023-04-04T18:44:34;2.45;;;0.70;;
77821;SDS011;67012;53.712;10.728;2023-04-04T18:46:59;1.13;;;0.77;;
77821;SDS011;67012;53.712;10.728;2023-04-04T18:49:28;3.53;;;0.70;;
77821;SDS011;67012;53.712;10.728;2023-04-04T18:51:53;2.07;;;0.70;;
77821;SDS011;67012;53.712;10.728;2023-04-04T18:54:19;2.10;;;0.55;;
77821;SDS011;67012;53.712;10.728;2023-04-04T18:56:44;1.35;;;0.65;;
77821;SDS011;67012;53.712;10.728;2023-04-04T18:59:10;1.75;;;0.90;;
77821;SDS011;67012;53.712;10.728;2023-04-04T19:01:37;2.33;;;0.80;;
77821;SDS011;67012;53.712;10.728;2023-04-04T19:04:02;1.98;;;1.00;;
77821;SDS011;67012;53.712;10.728;2023-04-04T19:06:27;2.40;;;1.92;;
77821;SDS011;67012;53.712;10.728;2023-04-04T19:08:54;2.67;;;1.73;;
77821;SDS011;67012;53.712;10.728;2023-04-04T19:11:24;2.97;;;1.70;;
77821;SDS011;67012;53.712;10.728;2023-04-04T19:13:49;1.95;;;1.60;;
77821;SDS011;67012;53.712;10.728;2023-04-04T19:16:15;4.95;;;1.77;;
77821;SDS011;67012;53.712;10.728;2023-04-04T19:18:41;2.60;;;1.73;;
77821;SDS011;67012;53.712;10.728;2023-04-04T19:21:07;3.55;;;2.40;;
77821;SDS011;67012;53.712;10.728;2023-04-04T19:23:32;7.57;;;1.90;;
77821;SDS011;67012;53.712;10.728;2023-04-04T19:25:58;2.43;;;1.50;;
77821;SDS011;67012;53.712;10.728;2023-04-04T19:28:26;2.00;;;1.38;;
77821;SDS011;67012;53.712;10.728;2023-04-04T19:30:51;4.40;;;1.50;;
77821;SDS011;67012;53.712;10.728;2023-04-04T19:33:22;2.13;;;1.38;;
77821;SDS011;67012;53.712;10.728;2023-04-04T19:35:54;2.25;;;1.23;;
77821;SDS011;67012;53.712;10.728;2023-04-04T19:40:51;5.82;;;1.92;;
77821;SDS011;67012;53.712;10.728;2023-04-04T19:43:19;6.07;;;2.72;;
77821;SDS011;67012;53.712;10.728;2023-04-04T19:45:46;6.40;;;2.42;;
77821;SDS011;67012;53.712;10.728;2023-04-04T19:48:35;4.35;;;2.60;;
77821;SDS011;67012;53.712;10.728;2023-04-04T19:50:57;4.97;;;2.25;;
77821;SDS011;67012;53.712;10.728;2023-04-04T19:53:22;3.77;;;1.90;;
77821;SDS011;67012;53.712;10.728;2023-04-04T19:55:48;3.95;;;1.42;;
77821;SDS011;67012;53.712;10.728;2023-04-04T19:58:17;4.07;;;1.40;;
77821;SDS011;67012;53.712;10.728;2023-04-04T20:00:45;3.08;;;1.45;;
